createdAt,value
2023-05-10T00:02:03.289Z,95528.91
2023-05-10T00:04:30.418Z,95537.94
2023-05-10T00:06:57.359Z,95552.78
2023-05-10T00:09:24.081Z,95568.09
2023-05-10T00:11:53.249Z,95577.81
2023-05-10T00:14:27.443Z,95578.91
2023-05-10T00:16:58.247Z,95579.69
2023-05-10T00:19:26.313Z,95570.63
2023-05-10T00:21:54.754Z,95590.66
2023-05-10T00:24:22.839Z,95597.00
2023-05-10T00:26:52.311Z,95603.47
2023-05-10T00:29:21.086Z,95609.91
2023-05-10T00:31:51.965Z,95611.13
2023-05-10T00:34:20.211Z,95614.38
2023-05-10T00:36:47.463Z,95607.47
2023-05-10T00:39:14.465Z,95601.69
2023-05-10T00:41:41.724Z,95599.47
2023-05-10T00:44:08.796Z,95599.09
2023-05-10T00:46:36.192Z,95600.56
2023-05-10T00:49:03.522Z,95601.78
2023-05-10T00:51:30.249Z,95607.69
2023-05-10T00:53:59.999Z,95602.22
2023-05-10T00:56:29.384Z,95600.66
2023-05-10T00:58:56.772Z,95592.16
2023-05-10T01:01:23.728Z,95593.03
2023-05-10T01:03:52.136Z,95586.88
2023-05-10T01:06:19.209Z,95594.91
2023-05-10T01:08:46.242Z,95579.75
2023-05-10T01:11:13.361Z,95578.75
2023-05-10T01:13:43.398Z,95577.13
2023-05-10T01:16:10.244Z,95593.09
2023-05-10T01:18:42.373Z,95595.13
2023-05-10T01:21:41.200Z,95597.91
2023-05-10T01:24:10.821Z,95598.78
2023-05-10T01:27:05.052Z,95589.44
2023-05-10T01:29:46.690Z,95588.78
2023-05-10T01:32:17.052Z,95592.38
2023-05-10T01:35:11.382Z,95580.31
2023-05-10T01:37:53.468Z,95578.09
2023-05-10T01:40:38.037Z,95588.72
2023-05-10T01:43:09.323Z,95577.50
2023-05-10T01:46:11.648Z,95583.06
2023-05-10T01:48:55.452Z,95581.63
2023-05-10T01:51:25.253Z,95579.31
2023-05-10T01:54:02.580Z,95581.84
2023-05-10T01:56:31.846Z,95573.59
2023-05-10T01:59:02.014Z,95584.22
2023-05-10T02:01:29.048Z,95580.75
2023-05-10T02:03:57.934Z,95578.88
2023-05-10T02:06:25.889Z,95563.72
2023-05-10T02:08:53.923Z,95575.56
2023-05-10T02:11:22.078Z,95574.44
2023-05-10T02:13:51.551Z,95572.00
2023-05-10T02:16:23.016Z,95577.19
2023-05-10T02:18:51.339Z,95570.59
2023-05-10T02:21:18.486Z,95581.69
2023-05-10T02:23:46.253Z,95579.44
2023-05-10T02:26:15.059Z,95571.63
2023-05-10T02:28:43.841Z,95573.19
2023-05-10T02:31:11.628Z,95569.69
2023-05-10T02:33:41.526Z,95570.81
2023-05-10T02:36:11.289Z,95563.81
2023-05-10T02:38:38.653Z,95578.31
2023-05-10T02:41:06.765Z,95573.63
2023-05-10T02:43:34.857Z,95578.69
2023-05-10T02:46:01.832Z,95574.38
2023-05-10T02:48:29.214Z,95574.47
2023-05-10T02:51:01.642Z,95581.22
2023-05-10T02:53:36.677Z,95579.75
2023-05-10T02:56:08.157Z,95582.13
2023-05-10T02:58:34.942Z,95584.41
2023-05-10T03:01:01.946Z,95580.50
2023-05-10T03:03:28.818Z,95582.91
2023-05-10T03:05:56.899Z,95583.00
2023-05-10T03:08:25.234Z,95582.22
2023-05-10T03:11:03.248Z,95581.47
2023-05-10T03:13:44.683Z,95587.09
2023-05-10T03:16:17.779Z,95579.66
2023-05-10T03:19:28.968Z,95576.59
2023-05-10T03:22:00.219Z,95581.78
2023-05-10T03:24:31.214Z,95584.22
2023-05-10T03:27:03.856Z,95583.88
2023-05-10T03:29:32.160Z,95594.63
2023-05-10T03:32:00.709Z,95582.94
2023-05-10T03:34:32.678Z,95585.78
2023-05-10T03:36:59.520Z,95586.25
2023-05-10T03:39:28.773Z,95587.09
2023-05-10T03:41:58.709Z,95584.41
2023-05-10T03:44:25.455Z,95584.03
2023-05-10T03:46:52.183Z,95591.25
2023-05-10T03:49:19.671Z,95590.16
2023-05-10T03:51:46.972Z,95589.88
2023-05-10T03:54:13.627Z,95599.06
2023-05-10T03:56:41.585Z,95595.16
2023-05-10T03:59:10.756Z,95597.59
2023-05-10T04:01:38.182Z,95604.66
2023-05-10T04:04:05.015Z,95611.78
2023-05-10T04:06:33.021Z,95601.91
2023-05-10T04:09:05.200Z,95609.78
2023-05-10T04:11:31.970Z,95612.97
2023-05-10T04:13:58.633Z,95609.81
2023-05-10T04:16:25.495Z,95606.75
2023-05-10T04:18:52.216Z,95610.41
2023-05-10T04:21:18.975Z,95618.31
2023-05-10T04:23:45.929Z,95615.25
2023-05-10T04:26:13.024Z,95613.75
2023-05-10T04:28:40.183Z,95625.28
2023-05-10T04:31:08.952Z,95618.22
2023-05-10T04:33:36.536Z,95619.84
2023-05-10T04:36:04.121Z,95617.84
2023-05-10T04:38:31.562Z,95626.19
2023-05-10T04:41:09.241Z,95623.81
2023-05-10T04:43:36.593Z,95619.03
2023-05-10T04:46:03.611Z,95622.22
2023-05-10T04:48:30.698Z,95624.94
2023-05-10T04:50:57.455Z,95614.25
2023-05-10T04:53:24.241Z,95617.44
2023-05-10T04:55:51.013Z,95622.22
2023-05-10T04:58:17.836Z,95625.41
2023-05-10T05:00:45.327Z,95623.81
2023-05-10T05:03:12.224Z,95633.72
2023-05-10T05:05:39.108Z,95628.56
2023-05-10T05:08:06.055Z,95629.75
2023-05-10T05:10:33.225Z,95627.78
2023-05-10T05:12:59.953Z,95625.44
2023-05-10T05:15:26.983Z,95621.09
2023-05-10T05:17:53.741Z,95623.91
2023-05-10T05:20:21.184Z,95625.56
2023-05-10T05:22:47.870Z,95628.00
2023-05-10T05:25:14.949Z,95620.16
2023-05-10T05:27:42.419Z,95626.88
2023-05-10T05:30:09.667Z,95625.31
2023-05-10T05:32:36.537Z,95621.75
2023-05-10T05:35:03.548Z,95627.69
2023-05-10T05:37:30.217Z,95632.84
2023-05-10T05:39:57.374Z,95637.59
2023-05-10T05:42:24.087Z,95638.38
2023-05-10T05:44:52.435Z,95638.38
2023-05-10T05:47:19.290Z,95636.81
2023-05-10T05:49:48.604Z,95643.94
2023-05-10T05:52:16.827Z,95642.34
2023-05-10T05:54:50.766Z,95648.25
2023-05-10T05:57:18.030Z,95650.25
2023-05-10T05:59:45.465Z,95641.56
2023-05-10T06:02:12.331Z,95647.47
2023-05-10T06:04:41.535Z,95655.00
2023-05-10T06:07:09.649Z,95647.09
2023-05-10T06:09:36.885Z,95654.63
2023-05-10T06:12:03.691Z,95655.03
2023-05-10T06:14:30.688Z,95651.06
2023-05-10T06:16:57.419Z,95657.81
2023-05-10T06:19:24.134Z,95660.97
2023-05-10T06:21:53.181Z,95669.28
2023-05-10T06:24:21.014Z,95659.38
2023-05-10T06:26:47.832Z,95664.50
2023-05-10T06:29:16.490Z,95665.31
2023-05-10T06:31:43.227Z,95655.03
2023-05-10T06:34:10.420Z,95667.28
2023-05-10T06:36:37.215Z,95656.63
2023-05-10T06:39:04.438Z,95663.72
2023-05-10T06:41:31.084Z,95661.72
2023-05-10T06:43:57.701Z,95668.06
2023-05-10T06:46:24.551Z,95666.50
2023-05-10T06:48:51.652Z,95659.75
2023-05-10T06:51:18.999Z,95660.53
2023-05-10T06:53:45.667Z,95670.81
2023-05-10T06:56:13.451Z,95665.25
2023-05-10T06:58:40.632Z,95670.00
2023-05-10T07:01:08.243Z,95675.13
2023-05-10T07:03:35.213Z,95670.34
2023-05-10T07:06:06.007Z,95667.19
2023-05-10T07:08:33.018Z,95676.25
2023-05-10T07:11:10.074Z,95675.09
2023-05-10T07:13:37.459Z,95677.03
2023-05-10T07:16:05.331Z,95679.03
2023-05-10T07:18:32.235Z,95681.00
2023-05-10T07:20:59.030Z,95688.50
2023-05-10T07:23:26.113Z,95690.47
2023-05-10T07:25:53.266Z,95693.69
2023-05-10T07:28:20.807Z,95690.53
2023-05-10T07:30:47.644Z,95706.34
2023-05-10T07:33:16.154Z,95701.63
2023-05-10T07:35:43.852Z,95696.50
2023-05-10T07:38:12.085Z,95698.88
2023-05-10T07:40:39.374Z,95705.56
2023-05-10T07:43:06.214Z,95700.47
2023-05-10T07:45:33.529Z,95711.94
2023-05-10T07:48:00.538Z,95711.94
2023-05-10T07:50:27.189Z,95709.53
2023-05-10T07:52:53.905Z,95700.84
2023-05-10T07:55:22.256Z,95713.50
2023-05-10T07:57:49.008Z,95709.88
2023-05-10T08:00:21.025Z,95701.53
2023-05-10T08:02:48.602Z,95707.84
2023-05-10T08:05:15.846Z,95711.75
2023-05-10T08:07:43.541Z,95710.94
2023-05-10T08:10:12.303Z,95708.50
2023-05-10T08:12:39.746Z,95716.41
2023-05-10T08:15:07.767Z,95706.06
2023-05-10T08:17:37.230Z,95709.94
2023-05-10T08:20:04.182Z,95718.53
2023-05-10T08:22:31.291Z,95710.63
2023-05-10T08:24:58.010Z,95718.03
2023-05-10T08:27:24.678Z,95723.59
2023-05-10T08:29:51.359Z,95717.97
2023-05-10T08:32:18.792Z,95718.34
2023-05-10T08:34:45.637Z,95720.84
2023-05-10T08:37:14.576Z,95723.16
2023-05-10T08:39:41.653Z,95728.28
2023-05-10T08:42:10.350Z,95721.66
2023-05-10T08:44:38.035Z,95723.59
2023-05-10T08:47:10.428Z,95729.50
2023-05-10T08:49:38.597Z,95727.53
2023-05-10T08:52:08.064Z,95727.97
2023-05-10T08:54:35.460Z,95727.88
2023-05-10T08:57:05.084Z,95727.91
2023-05-10T08:59:34.130Z,95724.25
2023-05-10T09:02:02.602Z,95730.31
2023-05-10T09:04:31.015Z,95731.34
2023-05-10T09:06:58.377Z,95729.25
2023-05-10T09:09:26.395Z,95726.41
2023-05-10T09:11:54.416Z,95736.09
2023-05-10T09:14:21.548Z,95730.13
2023-05-10T09:16:48.522Z,95728.19
2023-05-10T09:19:15.495Z,95740.41
2023-05-10T09:21:42.232Z,95735.28
2023-05-10T09:24:09.892Z,95744.38
2023-05-10T09:26:46.481Z,95735.97
2023-05-10T09:29:15.178Z,95738.41
2023-05-10T09:31:55.605Z,95746.50
2023-05-10T09:34:30.758Z,95750.94
2023-05-10T09:37:02.535Z,95753.28
2023-05-10T09:39:34.147Z,95751.34
2023-05-10T09:42:04.718Z,95749.78
2023-05-10T09:44:32.579Z,95754.25
2023-05-10T09:46:59.622Z,95758.09
2023-05-10T09:49:26.460Z,95760.41
2023-05-10T09:52:07.374Z,95762.91
2023-05-10T09:54:34.966Z,95760.69
2023-05-10T09:57:02.348Z,95767.09
2023-05-10T09:59:30.337Z,95758.44
2023-05-10T10:01:58.957Z,95765.66
2023-05-10T10:04:27.562Z,95774.41
2023-05-10T10:07:04.804Z,95762.91
2023-05-10T10:09:32.342Z,95775.63
2023-05-10T10:12:00.177Z,95773.22
2023-05-10T10:14:27.405Z,95779.97
2023-05-10T10:17:06.644Z,95779.94
2023-05-10T10:19:38.702Z,95778.75
2023-05-10T10:22:06.700Z,95788.69
2023-05-10T10:24:34.010Z,95789.09
2023-05-10T10:27:37.754Z,95787.91
2023-05-10T10:30:43.328Z,95782.38
2023-05-10T10:33:27.887Z,95776.84
2023-05-10T10:35:58.988Z,95780.81
2023-05-10T10:38:25.883Z,95782.41
2023-05-10T10:41:03.925Z,95781.59
2023-05-10T10:43:31.381Z,95773.69
2023-05-10T10:46:18.101Z,95776.81
2023-05-10T10:49:09.154Z,95779.59
2023-05-10T10:52:19.648Z,95786.72
2023-05-10T10:55:01.191Z,95786.34
2023-05-10T10:57:28.784Z,95786.75
2023-05-10T11:00:38.814Z,95782.41
2023-05-10T11:03:08.099Z,95787.53
2023-05-10T11:05:45.889Z,95783.97
2023-05-10T11:08:18.814Z,95779.22
2023-05-10T11:11:08.273Z,95783.16
2023-05-10T11:13:36.401Z,95787.88
2023-05-10T11:16:15.533Z,95788.28
2023-05-10T11:19:13.276Z,95794.59
2023-05-10T11:22:05.846Z,95783.13
2023-05-10T11:24:34.516Z,95782.28
2023-05-10T11:27:01.942Z,95788.59
2023-05-10T11:29:28.997Z,95786.63
2023-05-10T11:31:59.356Z,95782.31
2023-05-10T11:34:28.853Z,95782.34
2023-05-10T11:36:57.229Z,95784.34
2023-05-10T11:39:32.343Z,95796.22
2023-05-10T11:42:00.118Z,95785.13
2023-05-10T11:44:33.768Z,95788.31
2023-05-10T11:47:04.281Z,95783.56
2023-05-10T11:49:31.292Z,95788.69
2023-05-10T11:52:08.343Z,95793.47
2023-05-10T11:54:37.814Z,95789.53
2023-05-10T11:57:04.825Z,95788.72
2023-05-10T11:59:31.694Z,95786.34
2023-05-10T12:01:58.572Z,95795.84
2023-05-10T12:04:26.613Z,95797.81
2023-05-10T12:06:53.401Z,95792.69
2023-05-10T12:09:31.535Z,95797.44
2023-05-10T12:12:03.595Z,95796.66
2023-05-10T12:14:34.676Z,95795.84
2023-05-10T12:17:01.471Z,95801.00
2023-05-10T12:19:28.336Z,95804.56
2023-05-10T12:21:55.302Z,95794.25
2023-05-10T12:24:22.615Z,95805.34
2023-05-10T12:26:49.445Z,95798.59
2023-05-10T12:29:18.349Z,95801.38
2023-05-10T12:31:55.993Z,95803.34
2023-05-10T12:34:26.974Z,95799.78
2023-05-10T12:36:55.659Z,95802.50
2023-05-10T12:39:22.810Z,95798.97
2023-05-10T12:41:49.567Z,95805.31
2023-05-10T12:44:16.314Z,95808.50
2023-05-10T12:46:44.641Z,95801.34
2023-05-10T12:49:11.616Z,95803.72
2023-05-10T12:51:38.285Z,95803.72
2023-05-10T12:54:05.085Z,95807.66
2023-05-10T12:56:31.726Z,95810.75
2023-05-10T12:58:58.479Z,95799.66
2023-05-10T13:01:25.294Z,95797.25
2023-05-10T13:03:52.279Z,95804.41
2023-05-10T13:06:18.974Z,95801.56
2023-05-10T13:08:45.700Z,95803.13
2023-05-10T13:11:12.499Z,95801.81
2023-05-10T13:13:39.208Z,95797.44
2023-05-10T13:16:06.421Z,95796.69
2023-05-10T13:18:33.248Z,95792.69
2023-05-10T13:20:59.945Z,95789.19
2023-05-10T13:23:27.466Z,95791.13
2023-05-10T13:25:54.127Z,95785.19
2023-05-10T13:28:20.880Z,95788.69
2023-05-10T13:30:47.584Z,95788.38
2023-05-10T13:33:14.487Z,95782.81
2023-05-10T13:35:41.188Z,95778.81
2023-05-10T13:38:09.151Z,95782.34
2023-05-10T13:40:36.951Z,95777.94
2023-05-10T13:43:03.799Z,95775.53
2023-05-10T13:45:30.520Z,95767.72
2023-05-10T13:47:57.259Z,95773.66
2023-05-10T13:50:24.357Z,95767.38
2023-05-10T13:52:51.246Z,95764.53
2023-05-10T13:55:18.346Z,95768.47
2023-05-10T13:57:45.381Z,95772.03
2023-05-10T14:00:12.896Z,95768.84
2023-05-10T14:02:39.762Z,95761.66
2023-05-10T14:05:06.870Z,95768.03
2023-05-10T14:07:33.543Z,95750.09
2023-05-10T14:10:00.388Z,95759.22
2023-05-10T14:12:27.170Z,95756.03
2023-05-10T14:14:53.862Z,95756.34
2023-05-10T14:17:20.562Z,95754.00
2023-05-10T14:19:47.485Z,95754.31
2023-05-10T14:22:14.514Z,95749.53
2023-05-10T14:24:41.191Z,95751.50
2023-05-10T14:27:08.242Z,95746.75
2023-05-10T14:29:34.970Z,95757.09
2023-05-10T14:32:02.128Z,95756.78
2023-05-10T14:34:28.774Z,95754.81
2023-05-10T14:36:56.131Z,95754.06
2023-05-10T14:39:23.817Z,95759.94
2023-05-10T14:41:52.399Z,95746.88
2023-05-10T14:44:19.562Z,95752.06
2023-05-10T14:46:46.165Z,95747.69
2023-05-10T14:49:12.900Z,95749.59
2023-05-10T14:51:39.531Z,95747.69
2023-05-10T14:54:06.455Z,95750.81
2023-05-10T14:56:33.090Z,95754.06
2023-05-10T14:59:01.195Z,95746.56
2023-05-10T15:01:28.727Z,95758.56
2023-05-10T15:03:56.654Z,95748.59
2023-05-10T15:06:32.891Z,95749.41
2023-05-10T15:09:00.113Z,95746.22
2023-05-10T15:11:27.152Z,95750.22
2023-05-10T15:13:54.583Z,95752.56
2023-05-10T15:16:21.704Z,95752.19
2023-05-10T15:18:49.439Z,95755.03
2023-05-10T15:21:16.200Z,95754.31
2023-05-10T15:23:42.961Z,95753.50
2023-05-10T15:26:09.622Z,95753.91
2023-05-10T15:28:36.312Z,95755.13
2023-05-10T15:31:04.052Z,95758.72
2023-05-10T15:33:30.888Z,95753.56
2023-05-10T15:35:57.574Z,95756.00
2023-05-10T15:38:24.197Z,95758.72
2023-05-10T15:40:50.932Z,95760.63
2023-05-10T15:43:19.166Z,95763.78
2023-05-10T15:45:45.996Z,95760.63
2023-05-10T15:48:12.669Z,95764.22
2023-05-10T15:50:41.236Z,95763.00
2023-05-10T15:53:08.056Z,95761.41
2023-05-10T15:55:35.662Z,95770.16
2023-05-10T15:58:02.397Z,95763.84
2023-05-10T16:00:29.776Z,95761.56
2023-05-10T16:02:56.567Z,95770.34
2023-05-10T16:05:23.329Z,95768.72
2023-05-10T16:07:50.067Z,95771.91
2023-05-10T16:10:16.899Z,95760.06
2023-05-10T16:12:43.570Z,95770.06
2023-05-10T16:15:10.861Z,95769.63
2023-05-10T16:17:37.768Z,95765.69
2023-05-10T16:20:05.777Z,95764.94
2023-05-10T16:22:32.712Z,95765.34
2023-05-10T16:24:59.805Z,95774.44
2023-05-10T16:27:28.780Z,95776.84
2023-05-10T16:29:55.661Z,95769.75
2023-05-10T16:32:22.478Z,95774.47
2023-05-10T16:34:50.257Z,95782.41
2023-05-10T16:37:17.534Z,95780.03
2023-05-10T16:39:47.887Z,95791.47
2023-05-10T16:42:15.101Z,95793.06
2023-05-10T16:44:42.470Z,95783.97
2023-05-10T16:47:09.461Z,95796.22
2023-05-10T16:49:39.657Z,95794.94
2023-05-10T16:52:08.513Z,95796.13
2023-05-10T16:54:35.410Z,95806.00
2023-05-10T16:57:02.436Z,95804.03
2023-05-10T16:59:29.775Z,95805.22
2023-05-10T17:01:56.593Z,95806.78
2023-05-10T17:04:23.339Z,95816.66
2023-05-10T17:06:50.260Z,95814.25
2023-05-10T17:09:17.292Z,95817.00
2023-05-10T17:11:44.390Z,95819.34
2023-05-10T17:14:11.360Z,95818.56
2023-05-10T17:16:38.324Z,95824.03
2023-05-10T17:19:05.352Z,95832.31
2023-05-10T17:21:32.117Z,95835.09
2023-05-10T17:23:59.022Z,95829.50
2023-05-10T17:26:27.652Z,95832.66
2023-05-10T17:28:55.061Z,95837.34
2023-05-10T17:31:22.231Z,95832.56
2023-05-10T17:33:48.960Z,95831.34
2023-05-10T17:36:15.683Z,95842.00
2023-05-10T17:38:43.612Z,95842.84
2023-05-10T17:41:10.517Z,95842.88
2023-05-10T17:43:38.437Z,95840.47
2023-05-10T17:46:05.213Z,95845.16
2023-05-10T17:48:32.066Z,95846.72
2023-05-10T17:50:58.798Z,95845.06
2023-05-10T17:53:25.756Z,95855.25
2023-05-10T17:55:52.730Z,95852.88
2023-05-10T17:58:19.884Z,95858.44
2023-05-10T18:00:46.717Z,95863.94
2023-05-10T18:03:13.536Z,95867.72
2023-05-10T18:05:40.505Z,95861.69
2023-05-10T18:08:07.587Z,95865.59
2023-05-10T18:10:34.467Z,95874.66
2023-05-10T18:13:02.694Z,95865.13
2023-05-10T18:15:29.540Z,95875.72
2023-05-10T18:17:56.994Z,95875.72
2023-05-10T18:20:23.897Z,95878.00
2023-05-10T18:22:50.747Z,95881.47
2023-05-10T18:25:17.941Z,95877.44
2023-05-10T18:27:44.966Z,95888.91
2023-05-10T18:30:12.805Z,95879.88
2023-05-10T18:32:44.009Z,95887.75
2023-05-10T18:35:29.453Z,95889.75
2023-05-10T18:37:59.417Z,95884.25
2023-05-10T18:40:34.985Z,95896.81
2023-05-10T18:43:05.308Z,95889.28
2023-05-10T18:45:41.533Z,95893.66
2023-05-10T18:48:21.522Z,95905.47
2023-05-10T18:50:57.959Z,95908.22
2023-05-10T18:53:28.088Z,95898.69
2023-05-10T18:56:08.956Z,95903.84
2023-05-10T18:58:40.501Z,95913.25
2023-05-10T19:01:12.108Z,95911.56
2023-05-10T19:03:39.492Z,95913.94
2023-05-10T19:06:16.966Z,95914.66
2023-05-10T19:08:44.571Z,95918.97
2023-05-10T19:11:11.512Z,95917.78
2023-05-10T19:13:38.972Z,95920.53
2023-05-10T19:16:10.701Z,95921.28
2023-05-10T19:18:50.760Z,95930.72
2023-05-10T19:21:19.510Z,95930.41
2023-05-10T19:23:47.644Z,95935.41
2023-05-10T19:26:17.263Z,95928.44
2023-05-10T19:28:47.699Z,95935.47
2023-05-10T19:31:17.931Z,95929.09
2023-05-10T19:33:54.342Z,95940.09
2023-05-10T19:36:22.439Z,95938.88
2023-05-10T19:38:50.170Z,95937.28
2023-05-10T19:41:27.717Z,95934.47
2023-05-10T19:44:00.369Z,95943.59
2023-05-10T19:46:34.818Z,95932.00
2023-05-10T19:49:01.684Z,95952.56
2023-05-10T19:51:28.629Z,95944.69
2023-05-10T19:54:03.386Z,95940.78
2023-05-10T19:56:42.029Z,95942.25
2023-05-10T19:59:12.687Z,95951.34
2023-05-10T20:01:41.437Z,95942.25
2023-05-10T20:04:12.454Z,95947.75
2023-05-10T20:06:40.568Z,95944.91
2023-05-10T20:09:12.333Z,95937.53
2023-05-10T20:11:43.735Z,95935.03
2023-05-10T20:14:11.255Z,95945.31
2023-05-10T20:16:38.528Z,95946.06
2023-05-10T20:19:05.666Z,95943.72
2023-05-10T20:21:41.709Z,95944.38
2023-05-10T20:24:09.553Z,95944.78
2023-05-10T20:26:36.286Z,95942.88
2023-05-10T20:29:03.456Z,95941.91
2023-05-10T20:31:30.501Z,95944.25
2023-05-10T20:33:57.301Z,95940.69
2023-05-10T20:36:27.436Z,95947.44
2023-05-10T20:38:54.690Z,95939.84
2023-05-10T20:41:21.781Z,95947.00
2023-05-10T20:43:49.368Z,95938.72
2023-05-10T20:46:17.456Z,95951.13
2023-05-10T20:48:44.912Z,95935.03
2023-05-10T20:51:19.391Z,95945.63
2023-05-10T20:53:46.805Z,95938.94
2023-05-10T20:56:14.568Z,95938.09
2023-05-10T20:58:42.300Z,95934.56
2023-05-10T21:01:18.337Z,95940.06
2023-05-10T21:03:49.007Z,95945.16
2023-05-10T21:06:22.308Z,95940.81
2023-05-10T21:08:49.787Z,95919.38
2023-05-10T21:11:16.964Z,95946.31
2023-05-10T21:13:46.770Z,95938.44
2023-05-10T21:16:13.804Z,95934.50
2023-05-10T21:18:40.960Z,95932.22
2023-05-10T21:21:08.744Z,95936.56
2023-05-10T21:23:35.964Z,95944.78
2023-05-10T21:26:06.007Z,95944.34
2023-05-10T21:28:33.089Z,95953.47
2023-05-10T21:30:59.963Z,95947.53
2023-05-10T21:33:27.205Z,95941.97
2023-05-10T21:35:55.247Z,95940.81
2023-05-10T21:38:31.799Z,95945.16
2023-05-10T21:40:59.014Z,95946.69
2023-05-10T21:43:26.135Z,95947.78
2023-05-10T21:45:54.001Z,95937.03
2023-05-10T21:48:21.942Z,95943.06
2023-05-10T21:50:50.461Z,95951.34
2023-05-10T21:53:18.232Z,95945.88
2023-05-10T21:55:45.881Z,95942.97
2023-05-10T21:58:16.579Z,95945.28
2023-05-10T22:00:44.474Z,95942.97
2023-05-10T22:03:18.308Z,95935.81
2023-05-10T22:05:52.041Z,95946.84
2023-05-10T22:08:19.196Z,95950.44
2023-05-10T22:10:46.086Z,95944.81
2023-05-10T22:13:13.674Z,95945.13
2023-05-10T22:15:40.614Z,95939.56
2023-05-10T22:18:09.593Z,95941.47
2023-05-10T22:20:41.111Z,95944.31
2023-05-10T22:23:10.399Z,95942.31
2023-05-10T22:25:37.698Z,95944.63
2023-05-10T22:28:04.748Z,95949.78
2023-05-10T22:30:41.066Z,95944.09
2023-05-10T22:33:08.195Z,95949.59
2023-05-10T22:35:38.056Z,95955.03
2023-05-10T22:38:05.447Z,95950.59
2023-05-10T22:40:33.046Z,95956.50
2023-05-10T22:43:02.967Z,95954.88
2023-05-10T22:45:30.717Z,95938.97
2023-05-10T22:47:57.823Z,95952.78
2023-05-10T22:50:25.702Z,95945.22
2023-05-10T22:52:52.804Z,95942.13
2023-05-10T22:55:20.408Z,95953.13
2023-05-10T22:57:47.164Z,95950.53
2023-05-10T23:00:17.277Z,95959.00
2023-05-10T23:02:46.088Z,95956.06
2023-05-10T23:05:13.961Z,95951.31
2023-05-10T23:07:41.762Z,95962.75
2023-05-10T23:10:15.522Z,95966.69
2023-05-10T23:12:45.009Z,95958.28
2023-05-10T23:15:14.661Z,95964.94
2023-05-10T23:17:42.094Z,95962.00
2023-05-10T23:20:16.183Z,95957.28
2023-05-10T23:22:50.007Z,95964.97
2023-05-10T23:25:27.440Z,95966.41
2023-05-10T23:27:54.345Z,95962.44
2023-05-10T23:30:21.436Z,95961.34
2023-05-10T23:32:48.863Z,95963.03
2023-05-10T23:35:16.428Z,95959.91
2023-05-10T23:37:44.204Z,95961.06
2023-05-10T23:40:11.608Z,95954.09
2023-05-10T23:42:38.735Z,95964.84
2023-05-10T23:45:11.510Z,95958.38
2023-05-10T23:47:38.962Z,95952.03
2023-05-10T23:50:06.903Z,95946.31
2023-05-10T23:55:37.890Z,95946.13
2023-05-10T23:58:05.842Z,95941.94
